Strona główna
METAR-TAF:

METAR-TAF

Lotnisko :

Farnborough, Anglia

Szerokość geograficzna: 51-17N, Długość geograficzna: 000-46W, wysokość: 65 m

Aktualna obserwacja pogody

Raport powstał 32 minut temu, godzina 11:50 UTC
Wiatr 10 kt od północny wschód
Temperatura 28°C
Wilgotność 51%
Ciśnienie 1019 hPa
Widzialność 10 km lub więcej

METAR: EGLF 081150Z AUTO 05010KT 9999 NCD 28/17 Q1019

czas: 13:22 (12:22 UTC)

Prognoza

Raport powstał 1 godzina i 25 minut temu, godzina 10:57 UTC
Prognoza ważna od 08 godzina 12 UTC do 08 godzina 21 UTC
Wiatr 8 kt od północny wschód
Widzialność 10 km lub więcej
Brak chmur poniżej 1500 m i brak chmur cumulonimbus

TAF: EGLF 081057Z 0812/0821 04008KT CAVOK

Obserwacja i prognoza pogody dla ponad 4000 lotnisk (raport METAR i TAF).

Dostępne stacje oznaczono żółtymi i czerwonymi punktami na mapie.

Najedź kursorem aby zobaczyć nazwę stacji.

Kliknij aby zobaczyć obserwacje i prognozy pogody.

Aby zmienić mapę: kliknij na zielony przycisk z czarnym krzyżykiem, aby powiększyć; na zielony przycisk z myślnikiem, aby pomniejszyć; na zielone strzałki, aby przejść do map sąsiednich.


METAR-TAF: